createdAt,value
2018-05-25T00:01:43.575Z,28.20
2018-05-25T00:04:11.126Z,25.90
2018-05-25T00:06:38.931Z,28.70
2018-05-25T00:09:06.663Z,28.47
2018-05-25T00:11:34.181Z,28.33
2018-05-25T00:14:01.699Z,27.10
2018-05-25T00:16:29.184Z,27.40
2018-05-25T00:18:57.059Z,27.17
2018-05-25T00:21:24.561Z,27.30
2018-05-25T00:23:52.040Z,27.10
2018-05-25T00:26:20.358Z,28.77
2018-05-25T00:28:47.913Z,26.37
2018-05-25T00:31:15.355Z,27.10
2018-05-25T00:33:42.877Z,26.03
2018-05-25T00:36:10.364Z,28.00
2018-05-25T00:38:38.638Z,26.87
2018-05-25T00:41:06.140Z,26.90
2018-05-25T00:43:34.373Z,26.77
2018-05-25T00:46:01.877Z,25.47
2018-05-25T00:48:30.145Z,28.77
2018-05-25T00:50:57.630Z,25.30
2018-05-25T00:53:25.141Z,27.40
2018-05-25T00:55:52.620Z,30.67
2018-05-25T00:58:20.195Z,28.50
2018-05-25T01:00:47.646Z,28.93
2018-05-25T01:03:15.228Z,30.80
2018-05-25T01:05:42.815Z,31.10
2018-05-25T01:08:10.382Z,31.10
2018-05-25T01:10:37.866Z,31.10
2018-05-25T01:13:05.347Z,31.13
2018-05-25T01:15:32.858Z,32.23
2018-05-25T01:18:00.344Z,32.83
2018-05-25T01:20:27.872Z,31.47
2018-05-25T01:22:56.140Z,31.40
2018-05-25T01:25:24.452Z,31.50
2018-05-25T01:27:51.967Z,31.83
2018-05-25T01:30:19.481Z,34.40
2018-05-25T01:32:47.271Z,30.73
2018-05-25T01:35:14.852Z,31.87
2018-05-25T01:37:42.257Z,35.57
2018-05-25T01:40:10.568Z,33.37
2018-05-25T01:42:38.041Z,33.87
2018-05-25T01:45:05.583Z,34.00
2018-05-25T01:47:33.070Z,34.83
2018-05-25T01:50:00.566Z,35.03
2018-05-25T01:52:28.074Z,34.50
2018-05-25T01:54:55.843Z,34.47
2018-05-25T01:57:23.394Z,33.57
2018-05-25T01:59:50.865Z,36.67
2018-05-25T02:02:18.392Z,35.90
2018-05-25T02:04:45.852Z,36.60
2018-05-25T02:07:13.329Z,33.70
2018-05-25T02:09:41.707Z,33.73
2018-05-25T02:12:09.984Z,32.80
2018-05-25T02:14:37.691Z,33.13
2018-05-25T02:17:05.148Z,34.10
2018-05-25T02:19:33.067Z,32.57
2018-05-25T02:22:00.677Z,33.10
2018-05-25T02:24:28.133Z,31.63
2018-05-25T02:26:55.770Z,34.57
2018-05-25T02:29:23.937Z,33.80
2018-05-25T02:31:51.532Z,32.60
2018-05-25T02:34:19.051Z,33.10
2018-05-25T02:36:46.638Z,33.70
2018-05-25T02:39:14.123Z,35.97
2018-05-25T02:41:41.633Z,33.33
2018-05-25T02:44:09.188Z,36.53
2018-05-25T02:46:38.468Z,33.77
2018-05-25T02:49:06.000Z,34.73
2018-05-25T02:51:33.518Z,33.53
2018-05-25T02:54:01.122Z,35.10
2018-05-25T02:56:28.570Z,37.13
2018-05-25T02:58:56.123Z,33.33
2018-05-25T03:01:23.612Z,33.27
2018-05-25T03:03:51.125Z,35.20
2018-05-25T03:06:19.384Z,31.47
2018-05-25T03:08:46.942Z,33.07
2018-05-25T03:11:15.297Z,33.10
2018-05-25T03:13:42.758Z,31.67
2018-05-25T03:16:10.265Z,32.13
2018-05-25T03:18:37.787Z,30.93
2018-05-25T03:21:05.323Z,32.90
2018-05-25T03:23:32.847Z,30.27
2018-05-25T03:26:00.336Z,32.67
2018-05-25T03:28:28.642Z,32.33
2018-05-25T03:30:56.279Z,31.83
2018-05-25T03:33:23.742Z,32.60
2018-05-25T03:35:52.121Z,33.03
2018-05-25T03:38:20.398Z,32.60
2018-05-25T03:40:47.917Z,33.30
2018-05-25T03:43:15.458Z,31.03
2018-05-25T03:45:43.046Z,31.67
2018-05-25T03:48:10.517Z,30.67
2018-05-25T03:50:38.052Z,32.10
2018-05-25T03:53:05.505Z,32.60
2018-05-25T03:55:33.135Z,31.43
2018-05-25T03:58:00.580Z,33.40
2018-05-25T04:00:28.047Z,32.07
2018-05-25T04:02:56.348Z,29.87
2018-05-25T04:05:23.825Z,31.33
2018-05-25T04:07:52.073Z,31.90
2018-05-25T04:10:19.663Z,30.27
2018-05-25T04:12:47.125Z,30.37
2018-05-25T04:15:14.657Z,31.80
2018-05-25T04:17:43.040Z,30.40
2018-05-25T04:20:10.981Z,31.00
2018-05-25T04:22:39.208Z,29.70
2018-05-25T04:25:06.732Z,30.10
2018-05-25T04:27:34.155Z,31.67
2018-05-25T04:30:02.705Z,28.90
2018-05-25T04:32:30.985Z,29.50
2018-05-25T04:34:58.466Z,30.27
2018-05-25T04:37:27.736Z,30.60
2018-05-25T04:39:55.245Z,29.63
2018-05-25T04:42:24.429Z,28.10
2018-05-25T04:44:51.944Z,28.57
2018-05-25T04:47:19.483Z,28.53
2018-05-25T04:49:47.064Z,26.90
2018-05-25T04:52:14.694Z,27.53
2018-05-25T04:54:42.124Z,26.70
2018-05-25T04:57:09.684Z,28.40
2018-05-25T04:59:37.323Z,28.10
2018-05-25T05:02:04.854Z,28.30
2018-05-25T05:04:33.061Z,26.83
2018-05-25T05:07:00.600Z,27.17
2018-05-25T05:09:28.104Z,26.70
2018-05-25T05:11:56.462Z,27.67
2018-05-25T05:14:24.748Z,27.03
2018-05-25T05:16:52.613Z,26.33
2018-05-25T05:19:20.274Z,28.50
2018-05-25T05:21:47.717Z,27.43
2018-05-25T05:24:16.112Z,26.87
2018-05-25T05:26:44.464Z,27.60
2018-05-25T05:29:12.014Z,25.20
2018-05-25T05:31:39.877Z,25.43
2018-05-25T05:34:07.450Z,24.80
2018-05-25T05:36:34.969Z,25.27
2018-05-25T05:39:03.212Z,26.00
2018-05-25T05:41:31.380Z,24.73
2018-05-25T05:43:59.667Z,23.97
2018-05-25T05:46:28.296Z,23.63
2018-05-25T05:48:56.541Z,24.70
2018-05-25T05:51:24.077Z,20.63
2018-05-25T05:53:51.610Z,21.20
2018-05-25T05:56:19.099Z,20.80
2018-05-25T05:58:46.661Z,21.43
2018-05-25T06:01:14.165Z,18.53
2018-05-25T06:03:42.392Z,20.70
2018-05-25T06:06:10.774Z,18.60
2018-05-25T06:08:38.767Z,17.30
2018-05-25T06:11:06.489Z,17.20
2018-05-25T06:13:34.177Z,16.53
2018-05-25T06:16:01.635Z,15.33
2018-05-25T06:18:29.191Z,15.80
2018-05-25T06:20:56.749Z,15.53
2018-05-25T06:23:24.553Z,14.63
2018-05-25T06:25:52.224Z,15.30
2018-05-25T06:28:19.751Z,15.40
2018-05-25T06:30:47.318Z,15.27
2018-05-25T06:33:14.805Z,14.97
2018-05-25T06:35:42.276Z,12.67
2018-05-25T06:38:09.844Z,13.10
2018-05-25T06:40:37.364Z,12.97
2018-05-25T06:43:04.866Z,12.40
2018-05-25T06:45:32.781Z,12.73
2018-05-25T06:48:00.395Z,10.70
2018-05-25T06:50:28.023Z,11.23
2018-05-25T06:55:29.532Z,11.40
2018-05-25T06:57:57.193Z,11.50
2018-05-25T07:00:24.664Z,11.57
2018-05-25T07:02:52.144Z,10.10
2018-05-25T07:05:19.714Z,11.67
2018-05-25T07:07:47.444Z,11.10
2018-05-25T07:10:15.014Z,10.30
2018-05-25T07:12:43.484Z,12.00
2018-05-25T07:15:11.770Z,11.07
2018-05-25T07:17:39.264Z,10.87
2018-05-25T07:20:07.084Z,10.90
2018-05-25T07:22:36.035Z,11.70
2018-05-25T07:25:03.575Z,12.17
2018-05-25T07:27:31.076Z,11.20
2018-05-25T07:29:58.582Z,12.00
2018-05-25T07:32:27.018Z,11.23
2018-05-25T07:34:54.590Z,12.13
2018-05-25T07:37:22.908Z,13.00
2018-05-25T07:39:50.429Z,13.10
2018-05-25T07:42:17.988Z,13.23
2018-05-25T07:44:45.532Z,12.03
2018-05-25T07:47:13.809Z,12.60
2018-05-25T07:49:41.328Z,11.83
2018-05-25T07:52:08.947Z,12.40
2018-05-25T07:54:36.738Z,12.40
2018-05-25T07:57:04.251Z,11.57
2018-05-25T07:59:32.521Z,12.90
2018-05-25T08:02:00.862Z,12.80
2018-05-25T08:04:28.437Z,12.50
2018-05-25T08:06:56.201Z,12.10
2018-05-25T08:09:23.680Z,12.20
2018-05-25T08:11:51.212Z,12.10
2018-05-25T08:14:18.762Z,11.40
2018-05-25T08:16:46.349Z,9.43
2018-05-25T08:19:13.953Z,10.47
2018-05-25T08:21:41.613Z,10.90
2018-05-25T08:24:09.091Z,10.07
2018-05-25T08:26:37.006Z,11.00
2018-05-25T08:29:04.525Z,11.00
2018-05-25T08:31:33.188Z,9.70
2018-05-25T08:34:00.672Z,10.00
2018-05-25T08:36:28.197Z,10.03
2018-05-25T08:38:55.890Z,10.97
2018-05-25T08:41:23.437Z,10.03
2018-05-25T08:43:51.310Z,11.00
2018-05-25T08:46:18.869Z,10.70
2018-05-25T08:48:46.654Z,11.57
2018-05-25T08:51:14.136Z,10.73
2018-05-25T08:53:42.417Z,10.50
2018-05-25T08:56:11.536Z,10.33
2018-05-25T08:58:38.983Z,11.23
2018-05-25T09:01:07.322Z,10.83
2018-05-25T09:03:34.819Z,10.27
2018-05-25T09:06:03.175Z,11.27
2018-05-25T09:08:30.720Z,10.50
2018-05-25T09:11:05.625Z,11.23
2018-05-25T09:13:33.302Z,10.73
2018-05-25T09:16:00.795Z,10.80
2018-05-25T09:18:29.056Z,11.77
2018-05-25T09:20:56.532Z,11.07
2018-05-25T09:23:24.082Z,11.77
2018-05-25T09:25:51.572Z,12.20
2018-05-25T09:28:19.149Z,10.43
2018-05-25T09:30:46.726Z,10.80
2018-05-25T09:33:14.537Z,10.73
2018-05-25T09:35:42.124Z,12.10
2018-05-25T09:38:10.371Z,12.17
2018-05-25T09:40:38.075Z,12.80
2018-05-25T09:43:06.345Z,13.83
2018-05-25T09:45:34.610Z,13.00
2018-05-25T09:48:02.242Z,12.10
2018-05-25T09:50:29.708Z,11.07
2018-05-25T09:52:57.263Z,10.40
2018-05-25T09:55:25.511Z,10.10
2018-05-25T09:57:53.212Z,8.90
2018-05-25T10:00:20.853Z,8.13
2018-05-25T10:02:48.569Z,8.90
2018-05-25T10:05:16.859Z,8.33
2018-05-25T10:07:44.403Z,8.40
2018-05-25T10:10:12.707Z,7.57
2018-05-25T10:12:40.194Z,7.70
2018-05-25T10:15:11.309Z,13.03
2018-05-25T10:17:39.716Z,7.30
2018-05-25T10:20:07.340Z,6.60
2018-05-25T10:22:34.786Z,8.40
2018-05-25T10:25:02.303Z,8.40
2018-05-25T10:27:29.804Z,8.97
2018-05-25T10:29:57.291Z,10.03
2018-05-25T10:32:25.554Z,7.93
2018-05-25T10:34:53.149Z,7.97
2018-05-25T10:37:21.524Z,8.30
2018-05-25T10:39:48.995Z,8.40
2018-05-25T10:42:17.224Z,7.83
2018-05-25T10:44:44.783Z,9.23
2018-05-25T10:47:12.285Z,8.53
2018-05-25T10:49:39.819Z,7.23
2018-05-25T10:52:07.306Z,7.97
2018-05-25T10:54:34.784Z,8.00
2018-05-25T10:57:02.335Z,9.13
2018-05-25T10:59:29.980Z,8.80
2018-05-25T11:01:57.452Z,8.73
2018-05-25T11:04:25.056Z,8.80
2018-05-25T11:06:52.657Z,12.73
2018-05-25T11:09:20.228Z,9.50
2018-05-25T11:11:47.769Z,8.90
2018-05-25T11:14:15.323Z,9.37
2018-05-25T11:16:43.568Z,9.03
2018-05-25T11:19:11.104Z,8.30
2018-05-25T11:21:38.791Z,7.70
2018-05-25T11:24:06.268Z,9.20
2018-05-25T11:26:34.509Z,10.60
2018-05-25T11:29:02.020Z,8.93
2018-05-25T11:31:30.420Z,10.10
2018-05-25T11:33:58.848Z,8.90
2018-05-25T11:36:26.483Z,8.83
2018-05-25T11:38:53.947Z,8.83
2018-05-25T11:41:21.424Z,9.43
2018-05-25T11:43:49.665Z,8.23
2018-05-25T11:46:17.211Z,8.70
2018-05-25T11:48:45.467Z,8.50
2018-05-25T11:51:13.082Z,8.20
2018-05-25T11:53:40.610Z,9.90
2018-05-25T11:56:08.841Z,9.30
2018-05-25T11:58:36.605Z,10.30
2018-05-25T12:01:04.129Z,10.00
2018-05-25T12:03:31.627Z,8.43
2018-05-25T12:05:59.189Z,7.50
2018-05-25T12:08:26.778Z,7.63
2018-05-25T12:10:54.258Z,7.57
2018-05-25T12:13:21.791Z,8.47
2018-05-25T12:15:49.385Z,8.93
2018-05-25T12:18:17.768Z,7.80
2018-05-25T12:20:45.269Z,7.40
2018-05-25T12:23:13.108Z,8.20
2018-05-25T12:25:41.411Z,8.10
2018-05-25T12:28:08.919Z,7.40
2018-05-25T12:30:36.420Z,6.67
2018-05-25T12:33:04.030Z,7.00
2018-05-25T12:35:31.518Z,6.70
2018-05-25T12:37:59.018Z,7.80
2018-05-25T12:40:26.636Z,7.17
2018-05-25T12:42:54.104Z,5.70
2018-05-25T12:45:23.527Z,6.97
2018-05-25T12:47:51.154Z,6.63
2018-05-25T12:50:18.679Z,5.87
2018-05-25T12:52:47.136Z,6.10
2018-05-25T12:55:15.310Z,5.93
2018-05-25T12:57:42.838Z,5.97
2018-05-25T13:00:10.421Z,6.30
2018-05-25T13:02:37.968Z,5.37
2018-05-25T13:05:05.568Z,5.57
2018-05-25T13:07:33.853Z,11.07
2018-05-25T13:10:01.378Z,6.80
2018-05-25T13:12:28.907Z,6.60
2018-05-25T13:14:57.171Z,11.43
2018-05-25T13:17:24.651Z,6.50
2018-05-25T13:19:52.172Z,7.27
2018-05-25T13:22:19.720Z,7.07
2018-05-25T13:24:48.019Z,7.30
2018-05-25T13:27:15.495Z,7.10
2018-05-25T13:29:43.203Z,9.47
2018-05-25T13:32:10.860Z,6.27
2018-05-25T13:34:38.936Z,6.80
2018-05-25T13:37:06.559Z,6.50
2018-05-25T13:39:34.182Z,7.07
2018-05-25T13:42:01.892Z,11.47
2018-05-25T13:44:29.459Z,9.43
2018-05-25T13:46:57.765Z,8.40
2018-05-25T13:49:25.379Z,8.23
2018-05-25T13:51:52.780Z,8.80
2018-05-25T13:54:20.288Z,8.83
2018-05-25T13:56:47.816Z,9.90
2018-05-25T13:59:15.389Z,8.40
2018-05-25T14:01:43.665Z,8.20
2018-05-25T14:04:11.609Z,9.57
2018-05-25T14:06:39.206Z,10.20
2018-05-25T14:09:06.788Z,7.70
2018-05-25T14:11:34.356Z,7.90
2018-05-25T14:14:02.064Z,7.23
2018-05-25T14:16:29.473Z,5.80
2018-05-25T14:18:57.127Z,5.03
2018-05-25T14:21:24.919Z,5.73
2018-05-25T14:23:52.407Z,6.53
2018-05-25T14:26:19.938Z,5.67
2018-05-25T14:28:48.516Z,6.90
2018-05-25T14:31:16.116Z,5.47
2018-05-25T14:33:43.627Z,7.20
2018-05-25T14:36:11.140Z,5.90
2018-05-25T14:38:38.651Z,6.50
2018-05-25T14:41:06.128Z,6.60
2018-05-25T14:43:34.529Z,6.73
2018-05-25T14:46:02.269Z,6.53
2018-05-25T14:48:29.751Z,7.27
2018-05-25T14:50:57.321Z,6.87
2018-05-25T14:53:24.833Z,8.37
2018-05-25T14:55:52.340Z,6.90
2018-05-25T14:58:19.821Z,7.77
2018-05-25T15:00:47.382Z,7.57
2018-05-25T15:03:14.849Z,8.27
2018-05-25T15:05:42.361Z,7.23
2018-05-25T15:08:09.915Z,7.23
2018-05-25T15:10:37.442Z,7.10
2018-05-25T15:13:04.948Z,8.33
2018-05-25T15:15:32.449Z,7.67
2018-05-25T15:17:59.978Z,7.20
2018-05-25T15:20:27.500Z,6.10
2018-05-25T15:22:55.713Z,7.67
2018-05-25T15:25:23.214Z,7.03
2018-05-25T15:27:50.695Z,6.67
2018-05-25T15:30:18.221Z,5.77
2018-05-25T15:32:45.836Z,6.47
2018-05-25T15:35:13.377Z,6.40
2018-05-25T15:37:41.186Z,5.70
2018-05-25T15:40:09.058Z,6.70
2018-05-25T15:42:36.527Z,7.07
2018-05-25T15:45:04.878Z,5.80
2018-05-25T15:47:32.449Z,6.03
2018-05-25T15:50:00.206Z,7.00
2018-05-25T15:52:27.691Z,6.20
2018-05-25T15:54:55.148Z,6.40
2018-05-25T15:57:22.738Z,6.60
2018-05-25T15:59:50.958Z,6.40
2018-05-25T16:02:18.516Z,6.20
2018-05-25T16:04:46.112Z,6.57
2018-05-25T16:07:13.713Z,7.77
2018-05-25T16:09:41.288Z,6.60
2018-05-25T16:12:08.939Z,7.13
2018-05-25T16:14:37.301Z,5.73
2018-05-25T16:17:05.587Z,6.60
2018-05-25T16:19:33.127Z,7.00
2018-05-25T16:22:01.239Z,7.00
2018-05-25T16:24:28.712Z,7.00
2018-05-25T16:26:56.244Z,7.47
2018-05-25T16:29:25.825Z,7.30
2018-05-25T16:31:53.419Z,6.97
2018-05-25T16:34:20.973Z,7.60
2018-05-25T16:36:48.644Z,7.23
2018-05-25T16:39:16.212Z,7.13
2018-05-25T16:41:43.768Z,7.17
2018-05-25T16:44:11.322Z,7.90
2018-05-25T16:46:39.231Z,8.17
2018-05-25T16:49:06.694Z,7.70
2018-05-25T16:51:35.016Z,6.27
2018-05-25T16:54:02.647Z,6.50
2018-05-25T16:56:30.254Z,6.83
2018-05-25T16:58:57.840Z,6.90
2018-05-25T17:01:25.540Z,6.50
2018-05-25T17:03:53.164Z,6.50
2018-05-25T17:06:20.714Z,7.10
2018-05-25T17:08:49.036Z,6.60
2018-05-25T17:11:16.663Z,6.50
2018-05-25T17:13:44.914Z,5.47
2018-05-25T17:16:13.332Z,6.23
2018-05-25T17:18:40.849Z,6.23
2018-05-25T17:21:08.396Z,5.70
2018-05-25T17:23:35.846Z,5.97
2018-05-25T17:26:03.316Z,6.77
2018-05-25T17:28:30.887Z,6.23
2018-05-25T17:30:58.376Z,6.57
2018-05-25T17:33:26.677Z,6.80
2018-05-25T17:35:54.192Z,6.00
2018-05-25T17:38:22.488Z,7.33
2018-05-25T17:40:50.043Z,7.30
2018-05-25T17:43:17.575Z,6.40
2018-05-25T17:45:45.316Z,6.43
2018-05-25T17:48:12.812Z,7.20
2018-05-25T17:50:40.308Z,6.90
2018-05-25T17:53:07.843Z,7.70
2018-05-25T17:55:35.367Z,7.60
2018-05-25T17:58:02.878Z,7.00
2018-05-25T18:00:30.413Z,7.60
2018-05-25T18:02:57.962Z,6.20
2018-05-25T18:05:26.036Z,8.40
2018-05-25T18:07:54.417Z,6.93
2018-05-25T18:10:21.904Z,7.40
2018-05-25T18:12:50.173Z,7.90
2018-05-25T18:15:17.751Z,7.40
2018-05-25T18:17:46.027Z,7.57
2018-05-25T18:20:13.633Z,7.10
2018-05-25T18:22:41.242Z,8.90
2018-05-25T18:25:09.438Z,10.00
2018-05-25T18:27:37.660Z,7.67
2018-05-25T18:30:05.334Z,7.40
2018-05-25T18:32:32.946Z,6.97
2018-05-25T18:35:00.410Z,7.33
2018-05-25T18:37:27.900Z,7.97
2018-05-25T18:39:55.403Z,7.50
2018-05-25T18:42:23.696Z,7.50
2018-05-25T18:44:51.954Z,7.87
2018-05-25T18:47:20.226Z,7.67
2018-05-25T18:49:47.953Z,7.60
2018-05-25T18:52:15.487Z,8.03
2018-05-25T18:54:43.013Z,7.43
2018-05-25T18:57:10.516Z,7.70
2018-05-25T18:59:38.851Z,9.13
2018-05-25T19:02:06.600Z,8.40
2018-05-25T19:04:34.429Z,8.00
2018-05-25T19:07:01.926Z,8.57
2018-05-25T19:09:29.721Z,8.37
2018-05-25T19:11:57.217Z,8.77
2018-05-25T19:14:24.784Z,7.87
2018-05-25T19:16:53.143Z,8.50
2018-05-25T19:19:20.651Z,7.90
2018-05-25T19:21:48.935Z,8.53
2018-05-25T19:24:16.446Z,8.27
2018-05-25T19:26:43.960Z,9.50
2018-05-25T19:29:11.416Z,8.83
2018-05-25T19:31:39.044Z,8.63
2018-05-25T19:34:06.562Z,7.57
2018-05-25T19:36:34.733Z,9.80
2018-05-25T19:39:02.266Z,10.83
2018-05-25T19:41:30.077Z,11.30
2018-05-25T19:43:57.585Z,12.30
2018-05-25T19:46:25.957Z,11.50
2018-05-25T19:48:54.000Z,11.47
2018-05-25T19:51:22.475Z,9.80
2018-05-25T19:53:49.961Z,11.10
2018-05-25T19:56:17.498Z,12.40
2018-05-25T19:58:45.141Z,13.07
2018-05-25T20:01:12.744Z,12.23
2018-05-25T20:03:40.288Z,12.40
2018-05-25T20:06:08.653Z,12.10
2018-05-25T20:08:36.975Z,11.40
2018-05-25T20:11:05.061Z,10.40
2018-05-25T20:13:32.584Z,11.33
2018-05-25T20:16:00.427Z,9.77
2018-05-25T20:18:27.965Z,10.20
2018-05-25T20:20:55.800Z,11.37
2018-05-25T20:23:23.399Z,11.13
2018-05-25T20:25:51.053Z,10.73
2018-05-25T20:28:18.653Z,10.63
2018-05-25T20:30:46.404Z,10.10
2018-05-25T20:33:14.058Z,9.90
2018-05-25T20:35:41.667Z,10.90
2018-05-25T20:38:09.171Z,12.23
2018-05-25T20:40:37.466Z,12.53
2018-05-25T20:43:04.962Z,12.70
2018-05-25T20:45:32.511Z,12.50
2018-05-25T20:48:01.223Z,12.90
2018-05-25T20:50:28.838Z,13.83
2018-05-25T20:52:56.324Z,13.83
2018-05-25T20:55:24.591Z,14.20
2018-05-25T20:57:52.134Z,13.87
2018-05-25T21:00:20.429Z,15.73
2018-05-25T21:02:48.404Z,16.77
2018-05-25T21:05:18.789Z,15.37
2018-05-25T21:07:46.612Z,15.53
2018-05-25T21:10:14.610Z,16.90
2018-05-25T21:12:42.868Z,15.53
2018-05-25T21:15:11.517Z,17.33
2018-05-25T21:17:39.008Z,17.27
2018-05-25T21:20:06.649Z,17.43
2018-05-25T21:22:34.324Z,18.23
2018-05-25T21:25:01.841Z,18.37
2018-05-25T21:27:29.462Z,18.03
2018-05-25T21:29:57.115Z,18.13
2018-05-25T21:32:25.356Z,18.50
2018-05-25T21:34:52.911Z,19.67
2018-05-25T21:37:20.630Z,18.83
2018-05-25T21:39:48.259Z,19.17
2018-05-25T21:42:15.957Z,21.60
2018-05-25T21:44:43.449Z,21.20
2018-05-25T21:47:11.019Z,21.43
2018-05-25T21:49:38.825Z,21.37
2018-05-25T21:52:07.099Z,22.53
2018-05-25T21:54:34.892Z,21.00
2018-05-25T21:57:02.441Z,22.20
2018-05-25T21:59:30.114Z,22.50
2018-05-25T22:01:58.019Z,21.83
2018-05-25T22:04:25.654Z,22.97
2018-05-25T22:06:53.159Z,25.23
2018-05-25T22:09:20.879Z,22.40
2018-05-25T22:11:49.138Z,22.63
2018-05-25T22:14:16.639Z,24.60
2018-05-25T22:16:44.247Z,24.57
2018-05-25T22:19:12.409Z,23.33
2018-05-25T22:21:40.768Z,24.13
2018-05-25T22:24:08.572Z,25.40
2018-05-25T22:26:36.910Z,24.53
2018-05-25T22:29:04.437Z,25.23
2018-05-25T22:31:32.950Z,25.70
2018-05-25T22:34:00.595Z,28.50
2018-05-25T22:36:28.978Z,28.10
2018-05-25T22:38:56.534Z,25.30
2018-05-25T22:41:24.022Z,27.13
2018-05-25T22:43:52.197Z,27.37
2018-05-25T22:46:19.665Z,28.27
2018-05-25T22:48:47.216Z,26.70
2018-05-25T22:51:14.772Z,28.67
2018-05-25T22:53:42.259Z,26.80
2018-05-25T22:56:09.817Z,29.50
2018-05-25T22:58:37.416Z,27.27
2018-05-25T23:01:04.942Z,28.80
2018-05-25T23:03:32.993Z,27.53
2018-05-25T23:06:00.982Z,29.30
2018-05-25T23:08:29.252Z,29.00
2018-05-25T23:10:56.780Z,29.40
2018-05-25T23:13:24.286Z,26.50
2018-05-25T23:15:51.902Z,28.70
2018-05-25T23:18:20.081Z,30.30
2018-05-25T23:20:47.563Z,31.13
2018-05-25T23:23:15.996Z,29.77
2018-05-25T23:25:43.469Z,29.70
2018-05-25T23:28:10.970Z,30.47
2018-05-25T23:30:39.311Z,32.17
2018-05-25T23:33:06.839Z,32.20
2018-05-25T23:35:35.159Z,32.00
2018-05-25T23:38:02.706Z,31.90
2018-05-25T23:40:30.308Z,34.40
2018-05-25T23:42:57.816Z,33.60
2018-05-25T23:45:25.385Z,34.30
2018-05-25T23:47:52.921Z,34.20
2018-05-25T23:50:21.240Z,36.10
2018-05-25T23:52:48.764Z,34.77
2018-05-25T23:55:17.041Z,34.90
2018-05-25T23:57:44.561Z,33.93
